Latest Weather Observations for Point Wilson

IDV60801

Issued at 1:31 am EST Saturday 4 July 2015 (issued every 30 minutes, with the page automatically refreshed every 10 minutes)

About weather observations | Map of weather stations | Latest weather observations for VIC | Other Formats
Station Details ID: 087166 Name: POINT WILSON Lat: -38.10 Lon: 144.54 Height: 18.0 m
Data from the previous 72 hours. | See also: Recent months at Point Wilson
Date/Time
EST
Temp
°C
App
Temp
°C
Dew
Point
Rel
Hum
%
Delta-T
°C
Wind Press
QNH
hPa
Press
MSL
hPa
Rain
since 9 am
mm
Dir
 
Spd
km/h
Gust
km/h
Spd
kts
Gust
kts
04/01:30am - - - - - NNW 17 20 9 11 - - -
04/01:00am - - - - - NNW 17 20 9 11 - - -
04/12:30am - - - - - NNW 19 20 10 11 - - -
04/12:00am - - - - - N 19 22 10 12 - - -
 
Date/Time
EST
Temp
°C
App
Temp
°C
Dew
Point
Rel
Hum
%
Delta-T
°C
Wind Press
QNH
hPa
Press
MSL
hPa
Rain
since 9 am
mm
Dir
 
Spd
km/h
Gust
km/h
Spd
kts
Gust
kts
03/11:30pm - - - - - N 19 20 10 11 - - -
03/11:00pm - - - - - N 19 20 10 11 - - -
03/10:30pm - - - - - N 17 20 9 11 - - -
03/10:00pm - - - - - N 17 20 9 11 - - -
03/09:30pm - - - - - N 20 22 11 12 - - -
03/09:00pm - - - - - N 19 20 10 11 - - -
03/08:30pm - - - - - N 15 17 8 9 - - -
03/08:00pm - - - - - NNW 15 17 8 9 - - -
03/07:30pm - - - - - NW 13 15 7 8 - - -
03/07:00pm - - - - - NW 19 22 10 12 - - -
03/06:30pm - - - - - WNW 15 20 8 11 - - -
03/06:00pm - - - - - WNW 22 32 12 17 - - -
03/05:30pm - - - - - WNW 24 28 13 15 - - -
03/05:00pm - - - - - WNW 24 35 13 19 - - -
03/04:30pm - - - - - WNW 22 28 12 15 - - -
03/04:00pm - - - - - WNW 24 30 13 16 - - -
03/03:30pm - - - - - WNW 26 33 14 18 - - -
03/03:00pm - - - - - WNW 26 32 14 17 - - -
03/02:30pm - - - - - W 26 32 14 17 - - -
03/02:00pm - - - - - W 24 30 13 16 - - -
03/01:30pm - - - - - W 22 26 12 14 - - -
03/01:00pm - - - - - W 20 24 11 13 - - -
03/12:30pm - - - - - W 19 26 10 14 - - -
03/12:00pm - - - - - W 19 22 10 12 - - -
03/11:30am - - - - - W 20 24 11 13 - - -
03/11:00am - - - - - W 26 30 14 16 - - -
03/10:30am - - - - - W 26 30 14 16 - - -
03/10:00am - - - - - W 30 33 16 18 - - -
03/09:30am - - - - - W 26 30 14 16 - - -
03/09:00am - - - - - W 28 32 15 17 - - -
03/08:30am - - - - - W 32 37 17 20 - - -
03/08:00am - - - - - NNW 11 22 6 12 - - -
03/07:30am - - - - - W 20 24 11 13 - - -
03/07:00am - - - - - WSW 20 24 11 13 - - -
03/06:30am - - - - - W 28 33 15 18 - - -
03/06:00am - - - - - W 30 33 16 18 - - -
03/05:30am - - - - - W 30 33 16 18 - - -
03/05:00am - - - - - W 17 24 9 13 - - -
03/04:30am - - - - - W 17 20 9 11 - - -
03/04:00am - - - - - W 24 28 13 15 - - -
03/03:30am - - - - - W 17 19 9 10 - - -
03/03:00am - - - - - WSW 17 20 9 11 - - -
03/02:30am - - - - - W 22 26 12 14 - - -
03/02:00am - - - - - W 28 30 15 16 - - -
03/01:30am - - - - - W 26 32 14 17 - - -
03/01:00am - - - - - W 24 30 13 16 - - -
03/12:30am - - - - - W 24 28 13 15 - - -
03/12:00am - - - - - W 24 28 13 15 - - -
 
Date/Time
EST
Temp
°C
App
Temp
°C
Dew
Point
Rel
Hum
%
Delta-T
°C
Wind Press
QNH
hPa
Press
MSL
hPa
Rain
since 9 am
mm
Dir
 
Spd
km/h
Gust
km/h
Spd
kts
Gust
kts
02/11:30pm - - - - - W 20 24 11 13 - - -
02/11:00pm - - - - - WSW 20 24 11 13 - - -
02/10:30pm - - - - - W 24 30 13 16 - - -
02/10:00pm - - - - - W 22 28 12 15 - - -
02/09:30pm - - - - - WSW 22 26 12 14 - - -
02/09:00pm - - - - - SW 15 19 8 10 - - -
02/08:30pm - - - - - W 26 32 14 17 - - -
02/08:00pm - - - - - WSW 19 24 10 13 - - -
02/07:30pm - - - - - SW 24 28 13 15 - - -
02/07:00pm - - - - - SW 22 26 12 14 - - -
02/06:30pm - - - - - SW 26 28 14 15 - - -
02/06:00pm - - - - - WSW 28 33 15 18 - - -
02/05:30pm - - - - - SW 39 50 21 27 - - -
02/05:24pm - - - - - SW 35 50 19 27 - - -
02/05:00pm - - - - - SW 26 32 14 17 - - -
02/04:30pm - - - - - SW 33 43 18 23 - - -
02/04:00pm - - - - - SW 35 43 19 23 - - -
02/03:30pm - - - - - SW 26 33 14 18 - - -
02/03:00pm - - - - - SW 30 35 16 19 - - -
02/02:30pm - - - - - SW 37 43 20 23 - - -
02/02:00pm - - - - - SW 35 46 19 25 - - -
02/01:30pm - - - - - SW 39 46 21 25 - - -
02/01:00pm - - - - - SW 37 46 20 25 - - -
02/12:30pm - - - - - SW 43 54 23 29 - - -
02/12:00pm - - - - - SW 41 50 22 27 - - -
02/11:30am - - - - - SW 37 46 20 25 - - -
02/11:00am - - - - - SW 41 59 22 32 - - -
02/10:56am - - - - - SW 35 57 19 31 - - -
02/10:30am - - - - - WSW 32 39 17 21 - - -
02/10:00am - - - - - WSW 32 39 17 21 - - -
02/09:43am - - - - - WSW 35 54 19 29 - - -
02/09:30am - - - - - WSW 41 46 22 25 - - -
02/09:00am - - - - - WSW 39 46 21 25 - - -
02/08:46am - - - - - WSW 33 52 18 28 - - -
02/08:30am - - - - - WSW 35 46 19 25 - - -
02/08:00am - - - - - W 41 50 22 27 - - -
02/07:59am - - - - - W 41 50 22 27 - - -
02/07:30am - - - - - WNW 33 39 18 21 - - -
02/07:00am - - - - - WNW 26 33 14 18 - - -
02/06:30am - - - - - WNW 24 30 13 16 - - -
02/06:00am - - - - - W 28 35 15 19 - - -
02/05:30am - - - - - W 30 37 16 20 - - -
02/05:00am - - - - - W 30 35 16 19 - - -
02/04:30am - - - - - W 35 44 19 24 - - -
02/04:00am - - - - - W 30 37 16 20 - - -
02/03:30am - - - - - W 32 41 17 22 - - -
02/03:00am - - - - - W 43 52 23 28 - - -
02/02:30am - - - - - WNW 37 50 20 27 - - -
02/02:00am - - - - - NW 35 44 19 24 - - -
02/01:30am - - - - - NW 30 37 16 20 - - -
02/01:00am - - - - - NNW 30 35 16 19 - - -
02/12:30am - - - - - NW 37 46 20 25 - - -
02/12:00am - - - - - NW 35 44 19 24 - - -
 
Date/Time
EST
Temp
°C
App
Temp
°C
Dew
Point
Rel
Hum
%
Delta-T
°C
Wind Press
QNH
hPa
Press
MSL
hPa
Rain
since 9 am
mm
Dir
 
Spd
km/h
Gust
km/h
Spd
kts
Gust
kts
01/11:30pm - - - - - NW 41 50 22 27 - - -
01/11:00pm - - - - - NNW 35 44 19 24 - - -
01/10:30pm - - - - - NNW 24 28 13 15 - - -
01/10:00pm - - - - - NNW 22 28 12 15 - - -
01/09:30pm - - - - - NNW 24 30 13 16 - - -
01/09:00pm - - - - - NNW 30 37 16 20 - - -
01/08:30pm - - - - - NNW 32 35 17 19 - - -
01/08:00pm - - - - - NW 28 33 15 18 - - -
01/07:30pm - - - - - NNW 15 17 8 9 - - -
01/07:00pm - - - - - N 15 17 8 9 - - -
01/06:30pm - - - - - N 13 19 7 10 - - -
01/06:00pm - - - - - NNW 19 24 10 13 - - -
01/05:30pm - - - - - NNW 19 24 10 13 - - -
01/05:00pm - - - - - NNW 26 32 14 17 - - -
01/04:30pm - - - - - NW 24 30 13 16 - - -
01/04:00pm - - - - - NW 28 32 15 17 - - -
01/03:30pm - - - - - NW 35 43 19 23 - - -
01/03:00pm - - - - - NW 32 37 17 20 - - -
01/02:30pm - - - - - WNW 33 41 18 22 - - -
01/02:00pm - - - - - WNW 32 44 17 24 - - -
01/01:30pm - - - - - WNW 30 37 16 20 - - -
01/01:00pm - - - - - NW 32 39 17 21 - - -
01/12:30pm - - - - - NW 32 37 17 20 - - -
01/12:00pm - - - - - NW 30 39 16 21 - - -
01/11:30am - - - - - NW 32 41 17 22 - - -
01/11:00am - - - - - NNW 24 32 13 17 - - -
01/10:30am - - - - - NNW 22 26 12 14 - - -
01/10:00am - - - - - NNW 19 20 10 11 - - -
01/09:30am - - - - - WNW 17 20 9 11 - - -
01/09:00am - - - - - NNW 20 22 11 12 - - -
01/08:30am - - - - - NNW 17 19 9 10 - - -
01/08:00am - - - - - NW 15 20 8 11 - - -
01/07:30am - - - - - NW 15 17 8 9 - - -
01/07:00am - - - - - WNW 11 15 6 8 - - -
01/06:30am - - - - - WNW 15 19 8 10 - - -
01/06:00am - - - - - WNW 17 20 9 11 - - -
01/05:30am - - - - - W 11 15 6 8 - - -
01/05:00am - - - - - W 9 13 5 7 - - -
01/04:30am - - - - - W 9 13 5 7 - - -
01/04:00am - - - - - W 13 15 7 8 - - -
01/03:30am - - - - - W 13 15 7 8 - - -
01/03:00am - - - - - WNW 15 20 8 11 - - -
01/02:30am - - - - - W 19 20 10 11 - - -
01/02:00am - - - - - W 19 22 10 12 - - -

Other Formats:

Comma delimited format used in spreadsheet applications
http://www.bom.gov.au/fwo/IDV60801/IDV60801.94847.axf

JavaScript Object Notation format (JSON) in row-major order
http://www.bom.gov.au/fwo/IDV60801/IDV60801.94847.json